sensor_id;sensor_type;location;lat;lon;timestamp;temperature;humidity
5419;DHT22;2732;52.092;11.556;2023-06-14T00:04:17;16.60;56.70
5419;DHT22;2732;52.092;11.556;2023-06-14T00:09:18;16.60;56.70
5419;DHT22;2732;52.092;11.556;2023-06-14T00:14:19;16.40;56.60
5419;DHT22;2732;52.092;11.556;2023-06-14T00:19:20;16.40;56.80
5419;DHT22;2732;52.092;11.556;2023-06-14T00:24:21;16.30;57.10
5419;DHT22;2732;52.092;11.556;2023-06-14T00:29:21;16.20;57.10
5419;DHT22;2732;52.092;11.556;2023-06-14T00:34:23;16.20;57.60
5419;DHT22;2732;52.092;11.556;2023-06-14T00:39:23;16.10;57.90
5419;DHT22;2732;52.092;11.556;2023-06-14T00:44:24;16.00;58.10
5419;DHT22;2732;52.092;11.556;2023-06-14T00:49:25;15.90;58.40
5419;DHT22;2732;52.092;11.556;2023-06-14T00:54:26;15.80;58.50
5419;DHT22;2732;52.092;11.556;2023-06-14T00:59:26;15.70;58.80
5419;DHT22;2732;52.092;11.556;2023-06-14T01:04:27;15.70;59.00
5419;DHT22;2732;52.092;11.556;2023-06-14T01:09:37;15.60;59.20
5419;DHT22;2732;52.092;11.556;2023-06-14T01:14:50;15.50;59.40
5419;DHT22;2732;52.092;11.556;2023-06-14T01:19:53;15.40;59.80
5419;DHT22;2732;52.092;11.556;2023-06-14T01:24:58;15.40;59.90
5419;DHT22;2732;52.092;11.556;2023-06-14T01:29:58;15.30;60.10
5419;DHT22;2732;52.092;11.556;2023-06-14T01:34:59;15.30;60.60
5419;DHT22;2732;52.092;11.556;2023-06-14T01:40:01;15.20;60.60
5419;DHT22;2732;52.092;11.556;2023-06-14T01:45:05;15.20;61.20
5419;DHT22;2732;52.092;11.556;2023-06-14T01:50:06;15.10;61.60
5419;DHT22;2732;52.092;11.556;2023-06-14T01:55:08;15.10;62.10
5419;DHT22;2732;52.092;11.556;2023-06-14T02:00:10;15.00;62.30
5419;DHT22;2732;52.092;11.556;2023-06-14T02:05:14;14.90;62.60
5419;DHT22;2732;52.092;11.556;2023-06-14T02:10:19;14.90;62.90
5419;DHT22;2732;52.092;11.556;2023-06-14T02:15:19;14.80;62.90
5419;DHT22;2732;52.092;11.556;2023-06-14T02:20:22;14.80;63.50
5419;DHT22;2732;52.092;11.556;2023-06-14T02:25:22;14.70;63.80
5419;DHT22;2732;52.092;11.556;2023-06-14T02:30:23;14.70;64.00
5419;DHT22;2732;52.092;11.556;2023-06-14T02:35:24;14.60;64.30
5419;DHT22;2732;52.092;11.556;2023-06-14T02:40:27;14.60;64.70
5419;DHT22;2732;52.092;11.556;2023-06-14T02:45:27;14.50;65.40
5419;DHT22;2732;52.092;11.556;2023-06-14T02:50:28;14.50;65.40
5419;DHT22;2732;52.092;11.556;2023-06-14T02:55:30;14.50;65.90
5419;DHT22;2732;52.092;11.556;2023-06-14T03:00:31;14.40;66.10
5419;DHT22;2732;52.092;11.556;2023-06-14T03:05:31;14.40;66.90
5419;DHT22;2732;52.092;11.556;2023-06-14T03:10:34;14.40;67.20
5419;DHT22;2732;52.092;11.556;2023-06-14T03:15:36;14.40;68.00
5419;DHT22;2732;52.092;11.556;2023-06-14T03:20:38;14.30;68.10
5419;DHT22;2732;52.092;11.556;2023-06-14T03:25:39;14.30;68.30
5419;DHT22;2732;52.092;11.556;2023-06-14T03:30:42;14.30;68.70
5419;DHT22;2732;52.092;11.556;2023-06-14T03:35:43;14.30;68.80
5419;DHT22;2732;52.092;11.556;2023-06-14T03:40:44;14.30;69.70
5419;DHT22;2732;52.092;11.556;2023-06-14T03:45:44;14.20;70.00
5419;DHT22;2732;52.092;11.556;2023-06-14T03:50:45;14.20;71.30
5419;DHT22;2732;52.092;11.556;2023-06-14T03:55:46;14.20;71.40
5419;DHT22;2732;52.092;11.556;2023-06-14T04:00:47;14.20;71.60
5419;DHT22;2732;52.092;11.556;2023-06-14T04:05:48;14.20;73.30
5419;DHT22;2732;52.092;11.556;2023-06-14T04:10:49;14.20;75.20
5419;DHT22;2732;52.092;11.556;2023-06-14T04:15:50;14.20;76.00
5419;DHT22;2732;52.092;11.556;2023-06-14T04:20:50;14.20;75.90
5419;DHT22;2732;52.092;11.556;2023-06-14T04:25:51;14.20;75.90
5419;DHT22;2732;52.092;11.556;2023-06-14T04:30:51;14.30;76.20
5419;DHT22;2732;52.092;11.556;2023-06-14T04:35:55;14.30;77.00
5419;DHT22;2732;52.092;11.556;2023-06-14T04:40:56;14.30;77.80
5419;DHT22;2732;52.092;11.556;2023-06-14T04:45:57;14.40;77.70
5419;DHT22;2732;52.092;11.556;2023-06-14T04:50:58;14.40;78.20
5419;DHT22;2732;52.092;11.556;2023-06-14T04:56:00;14.40;78.60
5419;DHT22;2732;52.092;11.556;2023-06-14T05:01:01;14.50;78.70
5419;DHT22;2732;52.092;11.556;2023-06-14T05:06:03;14.50;78.60
5419;DHT22;2732;52.092;11.556;2023-06-14T05:11:04;14.50;79.10
5419;DHT22;2732;52.092;11.556;2023-06-14T05:16:04;14.60;79.80
5419;DHT22;2732;52.092;11.556;2023-06-14T05:21:05;14.70;79.70
5419;DHT22;2732;52.092;11.556;2023-06-14T05:26:06;14.70;80.00
5419;DHT22;2732;52.092;11.556;2023-06-14T05:31:06;14.70;80.70
5419;DHT22;2732;52.092;11.556;2023-06-14T05:36:07;14.80;81.90
5419;DHT22;2732;52.092;11.556;2023-06-14T05:41:08;14.80;81.90
5419;DHT22;2732;52.092;11.556;2023-06-14T05:46:09;14.90;83.50
5419;DHT22;2732;52.092;11.556;2023-06-14T05:51:09;14.90;83.40
5419;DHT22;2732;52.092;11.556;2023-06-14T05:56:10;15.00;83.10
5419;DHT22;2732;52.092;11.556;2023-06-14T06:01:10;15.10;83.40
5419;DHT22;2732;52.092;11.556;2023-06-14T06:06:12;15.10;83.60
5419;DHT22;2732;52.092;11.556;2023-06-14T06:11:15;15.20;82.90
5419;DHT22;2732;52.092;11.556;2023-06-14T06:16:16;15.30;82.80
5419;DHT22;2732;52.092;11.556;2023-06-14T06:21:17;15.30;83.20
5419;DHT22;2732;52.092;11.556;2023-06-14T06:26:18;15.40;82.80
5419;DHT22;2732;52.092;11.556;2023-06-14T06:31:18;15.50;83.00
5419;DHT22;2732;52.092;11.556;2023-06-14T06:36:19;15.60;82.70
5419;DHT22;2732;52.092;11.556;2023-06-14T06:41:20;15.60;82.80
5419;DHT22;2732;52.092;11.556;2023-06-14T06:46:20;15.70;82.80
5419;DHT22;2732;52.092;11.556;2023-06-14T06:51:21;15.80;82.30
5419;DHT22;2732;52.092;11.556;2023-06-14T06:56:22;15.90;82.20
5419;DHT22;2732;52.092;11.556;2023-06-14T07:01:23;16.00;81.20
5419;DHT22;2732;52.092;11.556;2023-06-14T07:06:24;16.10;81.20
5419;DHT22;2732;52.092;11.556;2023-06-14T07:11:27;16.20;80.50
5419;DHT22;2732;52.092;11.556;2023-06-14T07:16:28;16.40;80.20
5419;DHT22;2732;52.092;11.556;2023-06-14T07:21:29;17.10;78.70
5419;DHT22;2732;52.092;11.556;2023-06-14T07:26:30;17.90;76.10
5419;DHT22;2732;52.092;11.556;2023-06-14T07:31:30;18.70;73.50
5419;DHT22;2732;52.092;11.556;2023-06-14T07:36:31;19.40;71.40
5419;DHT22;2732;52.092;11.556;2023-06-14T07:41:32;20.00;69.80
5419;DHT22;2732;52.092;11.556;2023-06-14T07:46:35;20.50;68.30
5419;DHT22;2732;52.092;11.556;2023-06-14T07:51:39;20.90;66.00
5419;DHT22;2732;52.092;11.556;2023-06-14T07:56:44;21.40;64.70
5419;DHT22;2732;52.092;11.556;2023-06-14T08:01:46;21.80;63.60
5419;DHT22;2732;52.092;11.556;2023-06-14T08:06:48;22.10;62.30
5419;DHT22;2732;52.092;11.556;2023-06-14T08:11:49;22.50;60.70
5419;DHT22;2732;52.092;11.556;2023-06-14T08:16:50;22.80;60.00
5419;DHT22;2732;52.092;11.556;2023-06-14T08:21:50;23.20;59.60
5419;DHT22;2732;52.092;11.556;2023-06-14T08:26:51;22.90;59.90
5419;DHT22;2732;52.092;11.556;2023-06-14T08:31:52;23.10;59.30
5419;DHT22;2732;52.092;11.556;2023-06-14T08:36:54;23.60;58.50
5419;DHT22;2732;52.092;11.556;2023-06-14T09:03:59;25.30;55.50
5419;DHT22;2732;52.092;11.556;2023-06-14T09:09:00;26.10;54.70
5419;DHT22;2732;52.092;11.556;2023-06-14T09:14:01;26.50;53.80
5419;DHT22;2732;52.092;11.556;2023-06-14T09:19:02;26.40;53.50
5419;DHT22;2732;52.092;11.556;2023-06-14T09:24:03;26.40;52.90
5419;DHT22;2732;52.092;11.556;2023-06-14T09:29:05;26.30;53.40
5419;DHT22;2732;52.092;11.556;2023-06-14T09:34:06;26.80;52.70
5419;DHT22;2732;52.092;11.556;2023-06-14T09:39:07;27.00;52.10
5419;DHT22;2732;52.092;11.556;2023-06-14T09:44:09;27.20;51.90
5419;DHT22;2732;52.092;11.556;2023-06-14T09:49:11;27.70;51.10
5419;DHT22;2732;52.092;11.556;2023-06-14T09:54:16;27.70;50.80
5419;DHT22;2732;52.092;11.556;2023-06-14T09:59:26;28.30;50.50
5419;DHT22;2732;52.092;11.556;2023-06-14T10:04:31;29.00;49.80
5419;DHT22;2732;52.092;11.556;2023-06-14T10:09:34;29.30;49.10
5419;DHT22;2732;52.092;11.556;2023-06-14T10:14:35;29.50;48.70
5419;DHT22;2732;52.092;11.556;2023-06-14T10:19:47;29.30;48.60
5419;DHT22;2732;52.092;11.556;2023-06-14T10:24:52;29.30;48.60
5419;DHT22;2732;52.092;11.556;2023-06-14T10:35:01;30.10;47.30
5419;DHT22;2732;52.092;11.556;2023-06-14T10:40:06;30.40;47.10
5419;DHT22;2732;52.092;11.556;2023-06-14T10:45:13;30.90;46.50
5419;DHT22;2732;52.092;11.556;2023-06-14T10:50:15;30.90;46.20
5419;DHT22;2732;52.092;11.556;2023-06-14T10:55:22;31.00;45.40
5419;DHT22;2732;52.092;11.556;2023-06-14T11:00:28;31.00;45.60
5419;DHT22;2732;52.092;11.556;2023-06-14T11:10:55;30.40;45.50
5419;DHT22;2732;52.092;11.556;2023-06-14T11:16:14;30.60;45.60
5419;DHT22;2732;52.092;11.556;2023-06-14T11:21:18;31.30;45.10
5419;DHT22;2732;52.092;11.556;2023-06-14T11:26:27;31.90;44.40
5419;DHT22;2732;52.092;11.556;2023-06-14T11:31:33;31.60;44.40
5419;DHT22;2732;52.092;11.556;2023-06-14T11:36:34;31.80;44.40
5419;DHT22;2732;52.092;11.556;2023-06-14T11:41:43;32.30;43.70
5419;DHT22;2732;52.092;11.556;2023-06-14T11:46:45;31.80;44.30
5419;DHT22;2732;52.092;11.556;2023-06-14T11:51:46;30.80;44.00
5419;DHT22;2732;52.092;11.556;2023-06-14T11:56:46;30.10;44.60
5419;DHT22;2732;52.092;11.556;2023-06-14T12:01:48;30.20;44.90
5419;DHT22;2732;52.092;11.556;2023-06-14T12:06:48;30.70;44.40
5419;DHT22;2732;52.092;11.556;2023-06-14T12:12:00;31.00;44.10
5419;DHT22;2732;52.092;11.556;2023-06-14T12:17:08;31.10;43.50
5419;DHT22;2732;52.092;11.556;2023-06-14T12:22:12;30.90;43.50
5419;DHT22;2732;52.092;11.556;2023-06-14T12:27:13;31.10;43.50
5419;DHT22;2732;52.092;11.556;2023-06-14T12:32:15;30.60;43.50
5419;DHT22;2732;52.092;11.556;2023-06-14T12:37:16;30.40;43.70
5419;DHT22;2732;52.092;11.556;2023-06-14T12:42:17;30.20;43.60
5419;DHT22;2732;52.092;11.556;2023-06-14T12:47:17;30.20;44.00
5419;DHT22;2732;52.092;11.556;2023-06-14T12:52:18;29.90;43.50
5419;DHT22;2732;52.092;11.556;2023-06-14T12:57:18;29.50;43.30
5419;DHT22;2732;52.092;11.556;2023-06-14T13:02:20;29.10;44.20
5419;DHT22;2732;52.092;11.556;2023-06-14T13:07:24;28.60;44.60
5419;DHT22;2732;52.092;11.556;2023-06-14T13:12:25;28.20;45.30
5419;DHT22;2732;52.092;11.556;2023-06-14T13:17:26;28.00;45.70
5419;DHT22;2732;52.092;11.556;2023-06-14T13:22:33;27.70;45.70
5419;DHT22;2732;52.092;11.556;2023-06-14T13:27:34;27.70;46.20
5419;DHT22;2732;52.092;11.556;2023-06-14T13:32:35;27.90;45.80
5419;DHT22;2732;52.092;11.556;2023-06-14T13:37:35;27.60;46.00
5419;DHT22;2732;52.092;11.556;2023-06-14T13:42:36;27.40;46.40
5419;DHT22;2732;52.092;11.556;2023-06-14T13:47:37;27.10;47.10
5419;DHT22;2732;52.092;11.556;2023-06-14T13:52:38;26.90;47.30
5419;DHT22;2732;52.092;11.556;2023-06-14T13:57:38;26.90;47.30
5419;DHT22;2732;52.092;11.556;2023-06-14T14:02:39;27.00;47.30
5419;DHT22;2732;52.092;11.556;2023-06-14T14:07:43;27.30;47.20
5419;DHT22;2732;52.092;11.556;2023-06-14T14:12:43;27.80;47.60
5419;DHT22;2732;52.092;11.556;2023-06-14T14:17:46;28.00;47.00
5419;DHT22;2732;52.092;11.556;2023-06-14T14:22:47;28.10;46.60
5419;DHT22;2732;52.092;11.556;2023-06-14T14:27:48;28.30;46.60
5419;DHT22;2732;52.092;11.556;2023-06-14T14:32:49;28.50;45.90
5419;DHT22;2732;52.092;11.556;2023-06-14T14:37:51;28.90;45.30
5419;DHT22;2732;52.092;11.556;2023-06-14T14:42:52;28.90;44.60
5419;DHT22;2732;52.092;11.556;2023-06-14T14:47:52;28.80;44.90
5419;DHT22;2732;52.092;11.556;2023-06-14T14:52:53;28.60;44.20
5419;DHT22;2732;52.092;11.556;2023-06-14T14:57:53;28.40;43.80
5419;DHT22;2732;52.092;11.556;2023-06-14T15:02:54;28.20;44.10
5419;DHT22;2732;52.092;11.556;2023-06-14T15:07:56;28.10;44.10
5419;DHT22;2732;52.092;11.556;2023-06-14T15:12:56;27.90;43.70
5419;DHT22;2732;52.092;11.556;2023-06-14T15:17:57;27.80;43.90
5419;DHT22;2732;52.092;11.556;2023-06-14T15:22:57;27.70;43.90
5419;DHT22;2732;52.092;11.556;2023-06-14T15:27:59;27.80;43.70
5419;DHT22;2732;52.092;11.556;2023-06-14T15:33:01;28.10;43.70
5419;DHT22;2732;52.092;11.556;2023-06-14T15:38:02;28.40;44.00
5419;DHT22;2732;52.092;11.556;2023-06-14T15:43:04;28.40;44.20
5419;DHT22;2732;52.092;11.556;2023-06-14T15:48:05;28.50;44.30
5419;DHT22;2732;52.092;11.556;2023-06-14T15:53:06;28.70;43.70
5419;DHT22;2732;52.092;11.556;2023-06-14T15:58:06;28.90;43.80
5419;DHT22;2732;52.092;11.556;2023-06-14T16:03:08;28.90;43.50
5419;DHT22;2732;52.092;11.556;2023-06-14T16:08:08;28.80;43.20
5419;DHT22;2732;52.092;11.556;2023-06-14T16:13:09;28.50;42.50
5419;DHT22;2732;52.092;11.556;2023-06-14T16:18:09;28.20;43.20
5419;DHT22;2732;52.092;11.556;2023-06-14T16:23:10;27.80;43.00
5419;DHT22;2732;52.092;11.556;2023-06-14T16:28:10;27.50;43.30
5419;DHT22;2732;52.092;11.556;2023-06-14T16:33:11;27.20;43.70
5419;DHT22;2732;52.092;11.556;2023-06-14T16:38:12;26.90;43.80
5419;DHT22;2732;52.092;11.556;2023-06-14T16:43:12;26.70;44.20
5419;DHT22;2732;52.092;11.556;2023-06-14T16:48:13;26.40;44.10
5419;DHT22;2732;52.092;11.556;2023-06-14T16:53:13;26.00;44.60
5419;DHT22;2732;52.092;11.556;2023-06-14T16:58:14;25.80;45.00
5419;DHT22;2732;52.092;11.556;2023-06-14T17:03:15;25.50;45.30
5419;DHT22;2732;52.092;11.556;2023-06-14T17:08:15;25.30;46.00
5419;DHT22;2732;52.092;11.556;2023-06-14T17:13:16;25.10;46.10
5419;DHT22;2732;52.092;11.556;2023-06-14T17:18:17;24.90;46.20
5419;DHT22;2732;52.092;11.556;2023-06-14T17:23:18;24.70;46.50
5419;DHT22;2732;52.092;11.556;2023-06-14T17:28:19;24.50;46.50
5419;DHT22;2732;52.092;11.556;2023-06-14T17:33:19;24.30;46.70
5419;DHT22;2732;52.092;11.556;2023-06-14T17:38:20;24.20;47.00
5419;DHT22;2732;52.092;11.556;2023-06-14T17:43:21;24.10;47.20
5419;DHT22;2732;52.092;11.556;2023-06-14T17:48:21;23.90;47.30
5419;DHT22;2732;52.092;11.556;2023-06-14T17:53:22;23.80;47.40
5419;DHT22;2732;52.092;11.556;2023-06-14T17:58:23;23.70;47.60
5419;DHT22;2732;52.092;11.556;2023-06-14T18:03:23;23.60;47.80
5419;DHT22;2732;52.092;11.556;2023-06-14T18:08:24;23.50;48.00
5419;DHT22;2732;52.092;11.556;2023-06-14T18:13:24;23.40;48.10
5419;DHT22;2732;52.092;11.556;2023-06-14T18:18:25;23.30;48.20
5419;DHT22;2732;52.092;11.556;2023-06-14T18:23:26;23.20;48.50
5419;DHT22;2732;52.092;11.556;2023-06-14T18:28:26;23.10;48.80
5419;DHT22;2732;52.092;11.556;2023-06-14T18:33:27;23.00;48.90
5419;DHT22;2732;52.092;11.556;2023-06-14T18:38:27;22.90;48.90
5419;DHT22;2732;52.092;11.556;2023-06-14T18:43:28;22.80;49.10
5419;DHT22;2732;52.092;11.556;2023-06-14T18:48:31;22.70;49.40
5419;DHT22;2732;52.092;11.556;2023-06-14T18:53:32;22.60;49.50
5419;DHT22;2732;52.092;11.556;2023-06-14T18:58:33;22.60;49.90
5419;DHT22;2732;52.092;11.556;2023-06-14T19:03:33;22.50;49.90
5419;DHT22;2732;52.092;11.556;2023-06-14T19:08:34;22.40;50.20
5419;DHT22;2732;52.092;11.556;2023-06-14T19:13:35;22.30;50.90
5419;DHT22;2732;52.092;11.556;2023-06-14T19:18:37;22.10;52.10
5419;DHT22;2732;52.092;11.556;2023-06-14T19:23:37;22.00;53.60
5419;DHT22;2732;52.092;11.556;2023-06-14T19:28:38;21.80;54.70
5419;DHT22;2732;52.092;11.556;2023-06-14T19:33:39;21.60;55.10
5419;DHT22;2732;52.092;11.556;2023-06-14T19:38:39;21.50;55.80
5419;DHT22;2732;52.092;11.556;2023-06-14T19:43:40;21.30;55.50
5419;DHT22;2732;52.092;11.556;2023-06-14T19:48:43;21.20;56.00
5419;DHT22;2732;52.092;11.556;2023-06-14T19:53:44;21.00;56.40
5419;DHT22;2732;52.092;11.556;2023-06-14T19:58:45;20.80;56.80
5419;DHT22;2732;52.092;11.556;2023-06-14T20:03:47;20.70;56.90
5419;DHT22;2732;52.092;11.556;2023-06-14T20:08:49;20.50;56.40
5419;DHT22;2732;52.092;11.556;2023-06-14T20:13:50;20.40;56.60
5419;DHT22;2732;52.092;11.556;2023-06-14T20:18:50;20.30;56.70
5419;DHT22;2732;52.092;11.556;2023-06-14T20:23:51;20.10;57.10
5419;DHT22;2732;52.092;11.556;2023-06-14T20:28:55;19.90;57.60
5419;DHT22;2732;52.092;11.556;2023-06-14T20:33:55;19.70;58.40
5419;DHT22;2732;52.092;11.556;2023-06-14T20:38:57;19.60;59.10
5419;DHT22;2732;52.092;11.556;2023-06-14T20:43:58;19.40;59.90
5419;DHT22;2732;52.092;11.556;2023-06-14T20:49:01;19.30;59.90
5419;DHT22;2732;52.092;11.556;2023-06-14T20:54:01;19.20;61.00
5419;DHT22;2732;52.092;11.556;2023-06-14T20:59:02;19.10;61.00
5419;DHT22;2732;52.092;11.556;2023-06-14T21:04:03;19.00;59.90
5419;DHT22;2732;52.092;11.556;2023-06-14T21:09:04;18.90;59.50
5419;DHT22;2732;52.092;11.556;2023-06-14T21:14:04;18.80;59.20
5419;DHT22;2732;52.092;11.556;2023-06-14T21:19:05;18.70;59.40
5419;DHT22;2732;52.092;11.556;2023-06-14T21:24:06;18.60;59.30
5419;DHT22;2732;52.092;11.556;2023-06-14T21:29:06;18.60;59.00
5419;DHT22;2732;52.092;11.556;2023-06-14T21:34:07;18.50;59.40
5419;DHT22;2732;52.092;11.556;2023-06-14T21:39:07;18.40;59.30
5419;DHT22;2732;52.092;11.556;2023-06-14T21:44:08;18.40;59.30
5419;DHT22;2732;52.092;11.556;2023-06-14T21:49:09;18.30;59.30
5419;DHT22;2732;52.092;11.556;2023-06-14T21:54:09;18.30;59.50
5419;DHT22;2732;52.092;11.556;2023-06-14T21:59:10;18.20;59.80
5419;DHT22;2732;52.092;11.556;2023-06-14T22:04:10;18.10;60.30
5419;DHT22;2732;52.092;11.556;2023-06-14T22:09:12;17.90;60.30
5419;DHT22;2732;52.092;11.556;2023-06-14T22:14:15;17.90;60.40
5419;DHT22;2732;52.092;11.556;2023-06-14T22:19:15;17.80;60.30
5419;DHT22;2732;52.092;11.556;2023-06-14T22:24:16;17.80;60.50
5419;DHT22;2732;52.092;11.556;2023-06-14T22:29:17;17.60;60.60
5419;DHT22;2732;52.092;11.556;2023-06-14T22:34:18;17.50;60.70
5419;DHT22;2732;52.092;11.556;2023-06-14T22:39:19;17.50;61.00
5419;DHT22;2732;52.092;11.556;2023-06-14T22:44:20;17.40;61.20
5419;DHT22;2732;52.092;11.556;2023-06-14T22:49:20;17.20;61.50
5419;DHT22;2732;52.092;11.556;2023-06-14T22:54:21;17.10;61.90
5419;DHT22;2732;52.092;11.556;2023-06-14T22:59:22;17.00;62.40
5419;DHT22;2732;52.092;11.556;2023-06-14T23:04:25;16.90;63.00
5419;DHT22;2732;52.092;11.556;2023-06-14T23:09:25;16.80;63.60
5419;DHT22;2732;52.092;11.556;2023-06-14T23:14:26;16.70;64.10
5419;DHT22;2732;52.092;11.556;2023-06-14T23:19:27;16.50;64.60
5419;DHT22;2732;52.092;11.556;2023-06-14T23:24:29;16.40;64.50
5419;DHT22;2732;52.092;11.556;2023-06-14T23:29:30;16.30;64.80
5419;DHT22;2732;52.092;11.556;2023-06-14T23:34:34;16.20;65.30
5419;DHT22;2732;52.092;11.556;2023-06-14T23:39:35;16.10;65.60
5419;DHT22;2732;52.092;11.556;2023-06-14T23:44:48;16.00;66.30
5419;DHT22;2732;52.092;11.556;2023-06-14T23:49:50;15.90;66.20
5419;DHT22;2732;52.092;11.556;2023-06-14T23:54:50;15.80;65.50
5419;DHT22;2732;52.092;11.556;2023-06-14T23:59:52;15.80;65.10
